sensor_id;sensor_type;location;lat;lon;timestamp;P1;durP1;ratioP1;P2;durP2;ratioP2
15126;SDS011;7664;52.008;4.748;2023-09-19T00:00:43;1.90;;;0.75;;
15126;SDS011;7664;52.008;4.748;2023-09-19T00:03:13;2.40;;;1.33;;
15126;SDS011;7664;52.008;4.748;2023-09-19T00:05:42;1.95;;;0.77;;
15126;SDS011;7664;52.008;4.748;2023-09-19T00:08:12;3.17;;;1.00;;
15126;SDS011;7664;52.008;4.748;2023-09-19T00:10:41;2.78;;;0.98;;
15126;SDS011;7664;52.008;4.748;2023-09-19T00:13:10;2.75;;;1.00;;
15126;SDS011;7664;52.008;4.748;2023-09-19T00:15:44;3.92;;;0.73;;
15126;SDS011;7664;52.008;4.748;2023-09-19T00:18:16;1.60;;;0.77;;
15126;SDS011;7664;52.008;4.748;2023-09-19T00:20:47;2.85;;;0.65;;
15126;SDS011;7664;52.008;4.748;2023-09-19T00:23:16;1.90;;;0.63;;
15126;SDS011;7664;52.008;4.748;2023-09-19T00:25:46;3.45;;;0.98;;
15126;SDS011;7664;52.008;4.748;2023-09-19T00:28:14;2.00;;;0.80;;
15126;SDS011;7664;52.008;4.748;2023-09-19T00:30:45;5.55;;;1.10;;
15126;SDS011;7664;52.008;4.748;2023-09-19T00:33:16;4.65;;;1.00;;
15126;SDS011;7664;52.008;4.748;2023-09-19T00:35:49;5.00;;;1.13;;
15126;SDS011;7664;52.008;4.748;2023-09-19T00:38:18;3.15;;;1.08;;
15126;SDS011;7664;52.008;4.748;2023-09-19T00:40:49;2.13;;;0.98;;
15126;SDS011;7664;52.008;4.748;2023-09-19T00:43:18;2.85;;;1.17;;
15126;SDS011;7664;52.008;4.748;2023-09-19T00:45:48;3.72;;;1.08;;
15126;SDS011;7664;52.008;4.748;2023-09-19T00:48:19;2.42;;;0.90;;
15126;SDS011;7664;52.008;4.748;2023-09-19T00:50:48;3.45;;;0.95;;
15126;SDS011;7664;52.008;4.748;2023-09-19T00:53:17;2.70;;;1.20;;
15126;SDS011;7664;52.008;4.748;2023-09-19T00:55:47;2.92;;;0.95;;
15126;SDS011;7664;52.008;4.748;2023-09-19T00:58:17;2.55;;;0.95;;
15126;SDS011;7664;52.008;4.748;2023-09-19T01:00:47;3.75;;;0.90;;
15126;SDS011;7664;52.008;4.748;2023-09-19T01:03:17;3.67;;;1.10;;
15126;SDS011;7664;52.008;4.748;2023-09-19T01:05:45;2.30;;;0.90;;
15126;SDS011;7664;52.008;4.748;2023-09-19T01:08:13;1.58;;;0.70;;
15126;SDS011;7664;52.008;4.748;2023-09-19T01:10:43;3.47;;;0.90;;
15126;SDS011;7664;52.008;4.748;2023-09-19T01:13:22;4.55;;;1.27;;
15126;SDS011;7664;52.008;4.748;2023-09-19T01:16:01;1.48;;;1.02;;
15126;SDS011;7664;52.008;4.748;2023-09-19T01:18:35;2.85;;;1.23;;
15126;SDS011;7664;52.008;4.748;2023-09-19T01:21:11;3.47;;;1.05;;
15126;SDS011;7664;52.008;4.748;2023-09-19T01:24:08;4.50;;;1.05;;
15126;SDS011;7664;52.008;4.748;2023-09-19T01:29:52;6.75;;;1.73;;
15126;SDS011;7664;52.008;4.748;2023-09-19T01:32:27;3.83;;;1.38;;
15126;SDS011;7664;52.008;4.748;2023-09-19T01:34:59;5.32;;;1.30;;
15126;SDS011;7664;52.008;4.748;2023-09-19T01:37:30;8.20;;;1.52;;
15126;SDS011;7664;52.008;4.748;2023-09-19T01:39:59;6.25;;;1.50;;
15126;SDS011;7664;52.008;4.748;2023-09-19T01:42:43;4.93;;;1.50;;
15126;SDS011;7664;52.008;4.748;2023-09-19T01:45:20;4.97;;;1.45;;
15126;SDS011;7664;52.008;4.748;2023-09-19T01:47:54;5.63;;;1.33;;
15126;SDS011;7664;52.008;4.748;2023-09-19T01:50:29;2.05;;;1.17;;
15126;SDS011;7664;52.008;4.748;2023-09-19T01:52:59;4.57;;;1.45;;
15126;SDS011;7664;52.008;4.748;2023-09-19T01:55:36;5.03;;;1.42;;
15126;SDS011;7664;52.008;4.748;2023-09-19T01:58:06;5.63;;;1.52;;
15126;SDS011;7664;52.008;4.748;2023-09-19T02:00:41;7.45;;;1.50;;
15126;SDS011;7664;52.008;4.748;2023-09-19T02:03:11;7.13;;;1.73;;
15126;SDS011;7664;52.008;4.748;2023-09-19T02:05:41;6.30;;;1.70;;
15126;SDS011;7664;52.008;4.748;2023-09-19T02:08:15;3.67;;;1.08;;
15126;SDS011;7664;52.008;4.748;2023-09-19T02:10:44;5.43;;;1.13;;
15126;SDS011;7664;52.008;4.748;2023-09-19T02:13:15;6.00;;;1.67;;
15126;SDS011;7664;52.008;4.748;2023-09-19T02:15:46;4.95;;;1.52;;
15126;SDS011;7664;52.008;4.748;2023-09-19T02:18:14;7.43;;;1.58;;
15126;SDS011;7664;52.008;4.748;2023-09-19T02:20:43;5.13;;;1.20;;
15126;SDS011;7664;52.008;4.748;2023-09-19T02:23:12;3.38;;;1.27;;
15126;SDS011;7664;52.008;4.748;2023-09-19T02:25:41;6.45;;;1.58;;
15126;SDS011;7664;52.008;4.748;2023-09-19T02:28:10;4.75;;;1.40;;
15126;SDS011;7664;52.008;4.748;2023-09-19T02:30:39;3.13;;;1.30;;
15126;SDS011;7664;52.008;4.748;2023-09-19T02:33:08;4.65;;;1.25;;
15126;SDS011;7664;52.008;4.748;2023-09-19T02:35:37;3.78;;;1.40;;
15126;SDS011;7664;52.008;4.748;2023-09-19T02:38:05;6.80;;;1.48;;
15126;SDS011;7664;52.008;4.748;2023-09-19T02:40:37;3.97;;;1.10;;
15126;SDS011;7664;52.008;4.748;2023-09-19T02:43:06;4.15;;;1.25;;
15126;SDS011;7664;52.008;4.748;2023-09-19T02:45:36;2.90;;;1.27;;
15126;SDS011;7664;52.008;4.748;2023-09-19T02:48:04;8.45;;;1.30;;
15126;SDS011;7664;52.008;4.748;2023-09-19T02:50:35;4.70;;;1.48;;
15126;SDS011;7664;52.008;4.748;2023-09-19T02:53:03;2.25;;;0.88;;
15126;SDS011;7664;52.008;4.748;2023-09-19T02:55:31;5.13;;;1.02;;
15126;SDS011;7664;52.008;4.748;2023-09-19T02:57:59;3.30;;;1.02;;
15126;SDS011;7664;52.008;4.748;2023-09-19T03:00:28;3.13;;;1.30;;
15126;SDS011;7664;52.008;4.748;2023-09-19T03:02:56;7.75;;;1.63;;
15126;SDS011;7664;52.008;4.748;2023-09-19T03:05:26;3.67;;;0.82;;
15126;SDS011;7664;52.008;4.748;2023-09-19T03:07:58;3.47;;;0.93;;
15126;SDS011;7664;52.008;4.748;2023-09-19T03:10:28;3.97;;;1.38;;
15126;SDS011;7664;52.008;4.748;2023-09-19T03:12:58;8.45;;;1.55;;
15126;SDS011;7664;52.008;4.748;2023-09-19T03:15:26;5.00;;;1.30;;
15126;SDS011;7664;52.008;4.748;2023-09-19T03:17:55;5.93;;;1.35;;
15126;SDS011;7664;52.008;4.748;2023-09-19T03:20:24;5.85;;;1.08;;
15126;SDS011;7664;52.008;4.748;2023-09-19T03:22:53;5.85;;;1.38;;
15126;SDS011;7664;52.008;4.748;2023-09-19T03:25:23;6.68;;;1.70;;
15126;SDS011;7664;52.008;4.748;2023-09-19T03:27:52;6.90;;;1.40;;
15126;SDS011;7664;52.008;4.748;2023-09-19T03:30:22;3.22;;;1.10;;
15126;SDS011;7664;52.008;4.748;2023-09-19T03:32:50;6.50;;;1.30;;
15126;SDS011;7664;52.008;4.748;2023-09-19T03:35:19;5.22;;;1.10;;
15126;SDS011;7664;52.008;4.748;2023-09-19T03:37:47;9.38;;;1.67;;
15126;SDS011;7664;52.008;4.748;2023-09-19T03:40:16;4.60;;;1.48;;
15126;SDS011;7664;52.008;4.748;2023-09-19T03:42:48;7.18;;;1.33;;
15126;SDS011;7664;52.008;4.748;2023-09-19T03:45:16;4.45;;;1.70;;
15126;SDS011;7664;52.008;4.748;2023-09-19T03:47:48;9.00;;;1.73;;
15126;SDS011;7664;52.008;4.748;2023-09-19T03:50:19;8.27;;;1.88;;
15126;SDS011;7664;52.008;4.748;2023-09-19T03:52:48;5.18;;;1.40;;
15126;SDS011;7664;52.008;4.748;2023-09-19T03:55:17;8.52;;;1.77;;
15126;SDS011;7664;52.008;4.748;2023-09-19T03:57:48;8.98;;;1.88;;
15126;SDS011;7664;52.008;4.748;2023-09-19T04:00:17;7.18;;;1.38;;
15126;SDS011;7664;52.008;4.748;2023-09-19T04:02:48;7.70;;;1.58;;
15126;SDS011;7664;52.008;4.748;2023-09-19T04:05:16;5.40;;;1.52;;
15126;SDS011;7664;52.008;4.748;2023-09-19T04:07:45;3.92;;;1.45;;
15126;SDS011;7664;52.008;4.748;2023-09-19T04:10:13;4.65;;;1.45;;
15126;SDS011;7664;52.008;4.748;2023-09-19T04:12:51;7.07;;;1.67;;
15126;SDS011;7664;52.008;4.748;2023-09-19T04:15:21;6.07;;;1.52;;
15126;SDS011;7664;52.008;4.748;2023-09-19T04:17:52;8.00;;;1.67;;
15126;SDS011;7664;52.008;4.748;2023-09-19T04:20:21;4.85;;;1.45;;
15126;SDS011;7664;52.008;4.748;2023-09-19T04:22:50;4.70;;;1.83;;
15126;SDS011;7664;52.008;4.748;2023-09-19T04:25:18;4.85;;;1.30;;
15126;SDS011;7664;52.008;4.748;2023-09-19T04:27:47;6.60;;;1.33;;
15126;SDS011;7664;52.008;4.748;2023-09-19T04:30:16;4.07;;;1.10;;
15126;SDS011;7664;52.008;4.748;2023-09-19T04:32:45;6.63;;;1.75;;
15126;SDS011;7664;52.008;4.748;2023-09-19T04:35:17;5.70;;;1.25;;
15126;SDS011;7664;52.008;4.748;2023-09-19T04:37:46;6.35;;;1.42;;
15126;SDS011;7664;52.008;4.748;2023-09-19T04:40:17;5.97;;;1.73;;
15126;SDS011;7664;52.008;4.748;2023-09-19T04:43:19;5.72;;;1.30;;
15126;SDS011;7664;52.008;4.748;2023-09-19T04:45:48;4.68;;;1.17;;
15126;SDS011;7664;52.008;4.748;2023-09-19T04:48:17;7.30;;;1.50;;
15126;SDS011;7664;52.008;4.748;2023-09-19T04:50:45;5.78;;;1.48;;
15126;SDS011;7664;52.008;4.748;2023-09-19T04:53:16;2.88;;;1.10;;
15126;SDS011;7664;52.008;4.748;2023-09-19T04:55:49;6.22;;;1.77;;
15126;SDS011;7664;52.008;4.748;2023-09-19T04:58:18;7.15;;;1.52;;
15126;SDS011;7664;52.008;4.748;2023-09-19T05:00:46;3.55;;;1.02;;
15126;SDS011;7664;52.008;4.748;2023-09-19T05:03:18;5.15;;;1.52;;
15126;SDS011;7664;52.008;4.748;2023-09-19T05:05:48;6.82;;;1.27;;
15126;SDS011;7664;52.008;4.748;2023-09-19T05:08:16;3.63;;;1.45;;
15126;SDS011;7664;52.008;4.748;2023-09-19T05:10:44;2.63;;;1.05;;
15126;SDS011;7664;52.008;4.748;2023-09-19T05:13:12;5.20;;;1.80;;
15126;SDS011;7664;52.008;4.748;2023-09-19T05:15:41;3.50;;;1.15;;
15126;SDS011;7664;52.008;4.748;2023-09-19T05:18:09;3.72;;;1.10;;
15126;SDS011;7664;52.008;4.748;2023-09-19T05:20:39;4.13;;;1.45;;
15126;SDS011;7664;52.008;4.748;2023-09-19T05:23:08;4.63;;;1.38;;
15126;SDS011;7664;52.008;4.748;2023-09-19T05:25:39;3.90;;;1.10;;
15126;SDS011;7664;52.008;4.748;2023-09-19T05:28:10;4.85;;;1.70;;
15126;SDS011;7664;52.008;4.748;2023-09-19T05:30:41;4.10;;;1.23;;
15126;SDS011;7664;52.008;4.748;2023-09-19T05:33:12;1.70;;;0.95;;
15126;SDS011;7664;52.008;4.748;2023-09-19T05:35:41;9.07;;;1.90;;
15126;SDS011;7664;52.008;4.748;2023-09-19T05:38:09;5.97;;;1.20;;
15126;SDS011;7664;52.008;4.748;2023-09-19T05:40:39;4.55;;;1.58;;
15126;SDS011;7664;52.008;4.748;2023-09-19T05:43:08;6.65;;;1.33;;
15126;SDS011;7664;52.008;4.748;2023-09-19T05:45:37;6.35;;;1.38;;
15126;SDS011;7664;52.008;4.748;2023-09-19T05:48:10;10.63;;;1.70;;
15126;SDS011;7664;52.008;4.748;2023-09-19T05:50:41;4.70;;;1.70;;
15126;SDS011;7664;52.008;4.748;2023-09-19T05:53:10;5.85;;;1.23;;
15126;SDS011;7664;52.008;4.748;2023-09-19T05:55:42;11.60;;;1.50;;
15126;SDS011;7664;52.008;4.748;2023-09-19T05:58:10;7.28;;;1.88;;
15126;SDS011;7664;52.008;4.748;2023-09-19T06:00:40;7.88;;;2.13;;
15126;SDS011;7664;52.008;4.748;2023-09-19T06:03:10;8.50;;;2.00;;
15126;SDS011;7664;52.008;4.748;2023-09-19T06:05:41;5.93;;;1.33;;
15126;SDS011;7664;52.008;4.748;2023-09-19T06:08:09;9.77;;;1.50;;
15126;SDS011;7664;52.008;4.748;2023-09-19T06:10:38;4.28;;;1.40;;
15126;SDS011;7664;52.008;4.748;2023-09-19T06:13:06;8.65;;;1.70;;
15126;SDS011;7664;52.008;4.748;2023-09-19T06:15:36;7.10;;;1.90;;
15126;SDS011;7664;52.008;4.748;2023-09-19T06:18:10;6.30;;;1.63;;
15126;SDS011;7664;52.008;4.748;2023-09-19T06:20:43;7.35;;;1.77;;
15126;SDS011;7664;52.008;4.748;2023-09-19T06:23:11;6.30;;;1.48;;
15126;SDS011;7664;52.008;4.748;2023-09-19T06:25:40;7.50;;;1.67;;
15126;SDS011;7664;52.008;4.748;2023-09-19T06:28:09;10.45;;;1.83;;
15126;SDS011;7664;52.008;4.748;2023-09-19T06:30:38;5.32;;;1.58;;
15126;SDS011;7664;52.008;4.748;2023-09-19T06:33:08;8.98;;;1.90;;
15126;SDS011;7664;52.008;4.748;2023-09-19T06:35:38;5.45;;;1.75;;
15126;SDS011;7664;52.008;4.748;2023-09-19T06:38:08;7.25;;;1.73;;
15126;SDS011;7664;52.008;4.748;2023-09-19T06:40:39;5.85;;;1.80;;
15126;SDS011;7664;52.008;4.748;2023-09-19T06:43:09;6.53;;;1.88;;
15126;SDS011;7664;52.008;4.748;2023-09-19T06:45:38;3.95;;;1.90;;
15126;SDS011;7664;52.008;4.748;2023-09-19T06:48:09;6.78;;;1.90;;
15126;SDS011;7664;52.008;4.748;2023-09-19T06:50:38;5.97;;;1.30;;
15126;SDS011;7664;52.008;4.748;2023-09-19T06:53:09;6.10;;;1.90;;
15126;SDS011;7664;52.008;4.748;2023-09-19T06:55:37;8.82;;;2.08;;
15126;SDS011;7664;52.008;4.748;2023-09-19T06:58:06;6.50;;;1.90;;
15126;SDS011;7664;52.008;4.748;2023-09-19T07:00:35;7.68;;;1.83;;
15126;SDS011;7664;52.008;4.748;2023-09-19T07:03:04;4.47;;;1.40;;
15126;SDS011;7664;52.008;4.748;2023-09-19T07:05:35;8.82;;;1.98;;
15126;SDS011;7664;52.008;4.748;2023-09-19T07:08:06;4.53;;;1.30;;
15126;SDS011;7664;52.008;4.748;2023-09-19T07:10:39;7.55;;;1.95;;
15126;SDS011;7664;52.008;4.748;2023-09-19T07:13:10;9.93;;;2.25;;
15126;SDS011;7664;52.008;4.748;2023-09-19T07:15:38;6.45;;;1.88;;
15126;SDS011;7664;52.008;4.748;2023-09-19T07:18:13;5.28;;;2.05;;
15126;SDS011;7664;52.008;4.748;2023-09-19T07:20:43;4.22;;;1.45;;
15126;SDS011;7664;52.008;4.748;2023-09-19T07:23:19;6.32;;;2.03;;
15126;SDS011;7664;52.008;4.748;2023-09-19T07:25:50;8.73;;;1.60;;
15126;SDS011;7664;52.008;4.748;2023-09-19T07:28:18;7.97;;;1.90;;
15126;SDS011;7664;52.008;4.748;2023-09-19T07:30:46;8.73;;;2.17;;
15126;SDS011;7664;52.008;4.748;2023-09-19T07:33:14;10.65;;;1.90;;
15126;SDS011;7664;52.008;4.748;2023-09-19T07:35:44;6.57;;;1.73;;
15126;SDS011;7664;52.008;4.748;2023-09-19T07:38:13;12.52;;;2.10;;
15126;SDS011;7664;52.008;4.748;2023-09-19T07:40:43;7.43;;;1.90;;
15126;SDS011;7664;52.008;4.748;2023-09-19T07:43:11;6.78;;;2.00;;
15126;SDS011;7664;52.008;4.748;2023-09-19T07:45:41;8.45;;;1.88;;
15126;SDS011;7664;52.008;4.748;2023-09-19T07:48:10;9.57;;;2.35;;
15126;SDS011;7664;52.008;4.748;2023-09-19T07:50:41;8.13;;;2.10;;
15126;SDS011;7664;52.008;4.748;2023-09-19T07:53:11;10.05;;;2.08;;
15126;SDS011;7664;52.008;4.748;2023-09-19T07:55:40;13.55;;;2.33;;
15126;SDS011;7664;52.008;4.748;2023-09-19T07:58:10;8.10;;;2.15;;
15126;SDS011;7664;52.008;4.748;2023-09-19T08:00:39;8.40;;;1.90;;
15126;SDS011;7664;52.008;4.748;2023-09-19T08:03:07;6.93;;;2.25;;
15126;SDS011;7664;52.008;4.748;2023-09-19T08:05:43;7.90;;;1.52;;
15126;SDS011;7664;52.008;4.748;2023-09-19T08:08:12;7.30;;;1.98;;
15126;SDS011;7664;52.008;4.748;2023-09-19T08:10:41;12.20;;;2.70;;
15126;SDS011;7664;52.008;4.748;2023-09-19T08:13:14;7.32;;;2.30;;
15126;SDS011;7664;52.008;4.748;2023-09-19T08:15:44;7.20;;;2.15;;
15126;SDS011;7664;52.008;4.748;2023-09-19T08:18:12;6.00;;;1.95;;
15126;SDS011;7664;52.008;4.748;2023-09-19T08:20:40;4.90;;;1.95;;
15126;SDS011;7664;52.008;4.748;2023-09-19T08:23:12;7.75;;;2.00;;
15126;SDS011;7664;52.008;4.748;2023-09-19T08:25:41;8.13;;;2.20;;
15126;SDS011;7664;52.008;4.748;2023-09-19T08:28:10;6.18;;;2.58;;
15126;SDS011;7664;52.008;4.748;2023-09-19T08:30:41;11.95;;;2.25;;
15126;SDS011;7664;52.008;4.748;2023-09-19T08:33:10;5.50;;;2.13;;
15126;SDS011;7664;52.008;4.748;2023-09-19T08:35:38;9.02;;;2.20;;
15126;SDS011;7664;52.008;4.748;2023-09-19T08:38:08;10.45;;;2.03;;
15126;SDS011;7664;52.008;4.748;2023-09-19T08:40:40;8.43;;;1.85;;
15126;SDS011;7664;52.008;4.748;2023-09-19T08:43:10;11.52;;;1.92;;
15126;SDS011;7664;52.008;4.748;2023-09-19T08:45:39;10.68;;;2.30;;
15126;SDS011;7664;52.008;4.748;2023-09-19T08:48:20;15.32;;;2.42;;
15126;SDS011;7664;52.008;4.748;2023-09-19T08:50:55;5.47;;;1.23;;
15126;SDS011;7664;52.008;4.748;2023-09-19T08:53:31;7.18;;;1.70;;
15126;SDS011;7664;52.008;4.748;2023-09-19T08:56:06;9.32;;;1.85;;
15126;SDS011;7664;52.008;4.748;2023-09-19T08:58:43;6.85;;;2.22;;
15126;SDS011;7664;52.008;4.748;2023-09-19T09:01:15;4.97;;;1.92;;
15126;SDS011;7664;52.008;4.748;2023-09-19T09:03:48;9.98;;;1.98;;
15126;SDS011;7664;52.008;4.748;2023-09-19T09:06:25;5.78;;;2.05;;
15126;SDS011;7664;52.008;4.748;2023-09-19T09:08:55;11.30;;;2.17;;
15126;SDS011;7664;52.008;4.748;2023-09-19T09:11:24;10.43;;;2.55;;
15126;SDS011;7664;52.008;4.748;2023-09-19T09:13:52;9.07;;;1.80;;
15126;SDS011;7664;52.008;4.748;2023-09-19T09:16:20;9.65;;;2.45;;
15126;SDS011;7664;52.008;4.748;2023-09-19T09:18:54;10.52;;;2.25;;
15126;SDS011;7664;52.008;4.748;2023-09-19T09:21:25;10.20;;;2.40;;
15126;SDS011;7664;52.008;4.748;2023-09-19T09:23:53;9.82;;;2.38;;
15126;SDS011;7664;52.008;4.748;2023-09-19T09:26:40;5.88;;;2.17;;
15126;SDS011;7664;52.008;4.748;2023-09-19T09:29:10;5.65;;;1.88;;
15126;SDS011;7664;52.008;4.748;2023-09-19T09:31:41;6.70;;;1.63;;
15126;SDS011;7664;52.008;4.748;2023-09-19T09:34:11;11.50;;;2.58;;
15126;SDS011;7664;52.008;4.748;2023-09-19T09:36:41;8.55;;;2.05;;
15126;SDS011;7664;52.008;4.748;2023-09-19T09:39:10;12.02;;;2.50;;
15126;SDS011;7664;52.008;4.748;2023-09-19T09:41:51;5.57;;;1.90;;
15126;SDS011;7664;52.008;4.748;2023-09-19T09:44:19;9.82;;;2.30;;
15126;SDS011;7664;52.008;4.748;2023-09-19T09:46:47;10.35;;;1.88;;
15126;SDS011;7664;52.008;4.748;2023-09-19T09:49:48;6.80;;;2.13;;
15126;SDS011;7664;52.008;4.748;2023-09-19T09:52:44;6.28;;;1.85;;
15126;SDS011;7664;52.008;4.748;2023-09-19T09:55:12;9.75;;;1.92;;
15126;SDS011;7664;52.008;4.748;2023-09-19T09:57:41;5.57;;;1.73;;
15126;SDS011;7664;52.008;4.748;2023-09-19T10:00:11;6.72;;;1.45;;
15126;SDS011;7664;52.008;4.748;2023-09-19T10:02:47;6.47;;;1.63;;
15126;SDS011;7664;52.008;4.748;2023-09-19T10:05:17;5.38;;;1.80;;
15126;SDS011;7664;52.008;4.748;2023-09-19T10:07:54;4.05;;;1.50;;
15126;SDS011;7664;52.008;4.748;2023-09-19T10:10:31;4.18;;;1.77;;
15126;SDS011;7664;52.008;4.748;2023-09-19T10:13:11;14.05;;;2.17;;
15126;SDS011;7664;52.008;4.748;2023-09-19T10:15:42;6.15;;;1.73;;
15126;SDS011;7664;52.008;4.748;2023-09-19T10:18:15;4.53;;;1.58;;
15126;SDS011;7664;52.008;4.748;2023-09-19T10:20:48;5.38;;;1.70;;
15126;SDS011;7664;52.008;4.748;2023-09-19T10:23:17;6.57;;;2.00;;
15126;SDS011;7664;52.008;4.748;2023-09-19T10:25:50;4.68;;;1.35;;
15126;SDS011;7664;52.008;4.748;2023-09-19T10:28:20;5.65;;;1.30;;
15126;SDS011;7664;52.008;4.748;2023-09-19T10:30:50;4.28;;;1.52;;
15126;SDS011;7664;52.008;4.748;2023-09-19T10:33:20;8.20;;;2.05;;
15126;SDS011;7664;52.008;4.748;2023-09-19T10:35:53;4.93;;;1.50;;
15126;SDS011;7664;52.008;4.748;2023-09-19T10:38:24;5.35;;;1.73;;
15126;SDS011;7664;52.008;4.748;2023-09-19T10:40:55;5.57;;;1.60;;
15126;SDS011;7664;52.008;4.748;2023-09-19T10:43:29;8.25;;;1.60;;
15126;SDS011;7664;52.008;4.748;2023-09-19T10:46:02;5.57;;;1.45;;
15126;SDS011;7664;52.008;4.748;2023-09-19T10:48:37;6.07;;;1.58;;
15126;SDS011;7664;52.008;4.748;2023-09-19T10:51:09;6.57;;;1.80;;
15126;SDS011;7664;52.008;4.748;2023-09-19T10:53:41;6.45;;;1.38;;
15126;SDS011;7664;52.008;4.748;2023-09-19T10:56:16;5.32;;;1.15;;
15126;SDS011;7664;52.008;4.748;2023-09-19T10:58:48;4.40;;;1.15;;
15126;SDS011;7664;52.008;4.748;2023-09-19T11:01:17;3.60;;;1.45;;
15126;SDS011;7664;52.008;4.748;2023-09-19T11:03:47;5.68;;;1.40;;
15126;SDS011;7664;52.008;4.748;2023-09-19T11:06:38;7.72;;;2.15;;
15126;SDS011;7664;52.008;4.748;2023-09-19T11:09:08;4.60;;;1.02;;
15126;SDS011;7664;52.008;4.748;2023-09-19T11:11:49;4.28;;;1.00;;
15126;SDS011;7664;52.008;4.748;2023-09-19T11:20:19;3.35;;;1.05;;
15126;SDS011;7664;52.008;4.748;2023-09-19T11:23:19;4.03;;;1.40;;
15126;SDS011;7664;52.008;4.748;2023-09-19T11:25:53;4.55;;;1.75;;
15126;SDS011;7664;52.008;4.748;2023-09-19T11:28:34;4.50;;;1.23;;
15126;SDS011;7664;52.008;4.748;2023-09-19T11:34:38;4.40;;;1.10;;
15126;SDS011;7664;52.008;4.748;2023-09-19T11:40:30;3.42;;;1.70;;
15126;SDS011;7664;52.008;4.748;2023-09-19T11:42:58;4.78;;;1.27;;
15126;SDS011;7664;52.008;4.748;2023-09-19T11:48:33;8.05;;;1.63;;
15126;SDS011;7664;52.008;4.748;2023-09-19T11:51:10;2.38;;;0.90;;
15126;SDS011;7664;52.008;4.748;2023-09-19T11:53:46;6.70;;;1.23;;
15126;SDS011;7664;52.008;4.748;2023-09-19T11:56:17;7.50;;;1.33;;
15126;SDS011;7664;52.008;4.748;2023-09-19T11:58:50;9.00;;;1.27;;
15126;SDS011;7664;52.008;4.748;2023-09-19T12:01:23;5.50;;;0.95;;
15126;SDS011;7664;52.008;4.748;2023-09-19T12:04:35;1.88;;;0.90;;
15126;SDS011;7664;52.008;4.748;2023-09-19T12:07:05;5.53;;;0.90;;
15126;SDS011;7664;52.008;4.748;2023-09-19T12:09:43;4.57;;;1.00;;
15126;SDS011;7664;52.008;4.748;2023-09-19T12:12:20;4.60;;;1.10;;
15126;SDS011;7664;52.008;4.748;2023-09-19T12:14:49;6.93;;;1.25;;
15126;SDS011;7664;52.008;4.748;2023-09-19T12:17:18;6.60;;;1.52;;
15126;SDS011;7664;52.008;4.748;2023-09-19T12:19:52;5.40;;;1.00;;
15126;SDS011;7664;52.008;4.748;2023-09-19T12:22:21;3.17;;;0.95;;
15126;SDS011;7664;52.008;4.748;2023-09-19T12:24:50;4.88;;;1.38;;
15126;SDS011;7664;52.008;4.748;2023-09-19T12:30:52;3.88;;;1.08;;
15126;SDS011;7664;52.008;4.748;2023-09-19T12:33:54;2.00;;;0.70;;
15126;SDS011;7664;52.008;4.748;2023-09-19T12:36:41;4.38;;;1.02;;
15126;SDS011;7664;52.008;4.748;2023-09-19T12:39:09;3.40;;;1.05;;
15126;SDS011;7664;52.008;4.748;2023-09-19T12:41:38;2.13;;;0.60;;
15126;SDS011;7664;52.008;4.748;2023-09-19T12:44:13;1.35;;;0.60;;
15126;SDS011;7664;52.008;4.748;2023-09-19T12:46:46;4.38;;;0.95;;
15126;SDS011;7664;52.008;4.748;2023-09-19T12:49:17;1.75;;;0.77;;
15126;SDS011;7664;52.008;4.748;2023-09-19T12:51:46;1.00;;;0.63;;
15126;SDS011;7664;52.008;4.748;2023-09-19T12:54:14;15.93;;;1.42;;
15126;SDS011;7664;52.008;4.748;2023-09-19T12:56:43;3.33;;;0.60;;
15126;SDS011;7664;52.008;4.748;2023-09-19T12:59:14;1.98;;;0.77;;
15126;SDS011;7664;52.008;4.748;2023-09-19T13:01:43;2.03;;;0.82;;
15126;SDS011;7664;52.008;4.748;2023-09-19T13:04:15;3.75;;;0.70;;
15126;SDS011;7664;52.008;4.748;2023-09-19T13:06:48;4.22;;;0.88;;
15126;SDS011;7664;52.008;4.748;2023-09-19T13:09:18;0.82;;;0.57;;
15126;SDS011;7664;52.008;4.748;2023-09-19T13:11:47;3.60;;;0.90;;
15126;SDS011;7664;52.008;4.748;2023-09-19T13:14:20;1.95;;;0.90;;
15126;SDS011;7664;52.008;4.748;2023-09-19T13:16:57;2.35;;;0.82;;
15126;SDS011;7664;52.008;4.748;2023-09-19T13:19:38;3.28;;;0.85;;
15126;SDS011;7664;52.008;4.748;2023-09-19T13:25:08;4.38;;;1.05;;
15126;SDS011;7664;52.008;4.748;2023-09-19T13:27:41;3.03;;;1.08;;
15126;SDS011;7664;52.008;4.748;2023-09-19T13:30:11;4.88;;;1.17;;
15126;SDS011;7664;52.008;4.748;2023-09-19T13:32:39;3.80;;;1.08;;
15126;SDS011;7664;52.008;4.748;2023-09-19T13:35:11;3.97;;;1.23;;
15126;SDS011;7664;52.008;4.748;2023-09-19T13:37:39;2.67;;;0.95;;
15126;SDS011;7664;52.008;4.748;2023-09-19T13:40:13;1.95;;;0.88;;
15126;SDS011;7664;52.008;4.748;2023-09-19T13:42:42;4.30;;;1.33;;
15126;SDS011;7664;52.008;4.748;2023-09-19T13:45:10;3.80;;;1.10;;
15126;SDS011;7664;52.008;4.748;2023-09-19T13:47:42;5.55;;;1.17;;
15126;SDS011;7664;52.008;4.748;2023-09-19T13:50:14;3.65;;;1.50;;
15126;SDS011;7664;52.008;4.748;2023-09-19T13:52:43;4.05;;;1.23;;
15126;SDS011;7664;52.008;4.748;2023-09-19T13:55:11;4.57;;;1.00;;
15126;SDS011;7664;52.008;4.748;2023-09-19T13:57:46;3.30;;;1.23;;
15126;SDS011;7664;52.008;4.748;2023-09-19T14:00:16;3.58;;;1.13;;
15126;SDS011;7664;52.008;4.748;2023-09-19T14:02:44;2.88;;;1.00;;
15126;SDS011;7664;52.008;4.748;2023-09-19T14:05:15;5.53;;;1.60;;
15126;SDS011;7664;52.008;4.748;2023-09-19T14:07:45;3.90;;;1.50;;
15126;SDS011;7664;52.008;4.748;2023-09-19T14:10:13;3.25;;;1.20;;
15126;SDS011;7664;52.008;4.748;2023-09-19T14:12:44;3.60;;;1.48;;
15126;SDS011;7664;52.008;4.748;2023-09-19T14:15:12;4.80;;;1.55;;
15126;SDS011;7664;52.008;4.748;2023-09-19T14:17:40;3.40;;;1.08;;
15126;SDS011;7664;52.008;4.748;2023-09-19T14:20:15;5.93;;;1.20;;
15126;SDS011;7664;52.008;4.748;2023-09-19T14:22:43;8.27;;;1.90;;
15126;SDS011;7664;52.008;4.748;2023-09-19T14:25:11;3.42;;;1.20;;
15126;SDS011;7664;52.008;4.748;2023-09-19T14:27:39;5.97;;;1.33;;
15126;SDS011;7664;52.008;4.748;2023-09-19T14:30:08;4.30;;;1.50;;
15126;SDS011;7664;52.008;4.748;2023-09-19T14:32:37;3.08;;;1.23;;
15126;SDS011;7664;52.008;4.748;2023-09-19T14:35:06;5.28;;;1.35;;
15126;SDS011;7664;52.008;4.748;2023-09-19T14:37:37;5.15;;;1.10;;
15126;SDS011;7664;52.008;4.748;2023-09-19T14:40:06;3.78;;;1.50;;
15126;SDS011;7664;52.008;4.748;2023-09-19T14:42:39;3.33;;;1.58;;
15126;SDS011;7664;52.008;4.748;2023-09-19T14:45:08;8.85;;;2.17;;
15126;SDS011;7664;52.008;4.748;2023-09-19T14:47:37;3.33;;;1.60;;
15126;SDS011;7664;52.008;4.748;2023-09-19T14:50:06;3.20;;;1.30;;
15126;SDS011;7664;52.008;4.748;2023-09-19T14:52:35;3.85;;;1.33;;
15126;SDS011;7664;52.008;4.748;2023-09-19T14:55:05;3.97;;;1.52;;
15126;SDS011;7664;52.008;4.748;2023-09-19T14:57:36;4.10;;;1.10;;
15126;SDS011;7664;52.008;4.748;2023-09-19T15:00:06;6.57;;;1.27;;
15126;SDS011;7664;52.008;4.748;2023-09-19T15:02:38;2.97;;;0.98;;
15126;SDS011;7664;52.008;4.748;2023-09-19T15:05:08;4.28;;;1.23;;
15126;SDS011;7664;52.008;4.748;2023-09-19T15:07:40;5.20;;;1.55;;
15126;SDS011;7664;52.008;4.748;2023-09-19T15:10:10;6.97;;;1.90;;
15126;SDS011;7664;52.008;4.748;2023-09-19T15:12:39;6.18;;;1.67;;
15126;SDS011;7664;52.008;4.748;2023-09-19T15:15:08;8.35;;;2.20;;
15126;SDS011;7664;52.008;4.748;2023-09-19T15:17:36;5.75;;;1.48;;
15126;SDS011;7664;52.008;4.748;2023-09-19T15:20:05;7.65;;;1.88;;
15126;SDS011;7664;52.008;4.748;2023-09-19T15:22:34;3.90;;;1.48;;
15126;SDS011;7664;52.008;4.748;2023-09-19T15:25:03;6.38;;;1.95;;
15126;SDS011;7664;52.008;4.748;2023-09-19T15:27:33;6.10;;;1.50;;
15126;SDS011;7664;52.008;4.748;2023-09-19T15:30:03;5.70;;;1.60;;
15126;SDS011;7664;52.008;4.748;2023-09-19T15:32:33;7.10;;;1.88;;
15126;SDS011;7664;52.008;4.748;2023-09-19T15:35:01;2.72;;;1.42;;
15126;SDS011;7664;52.008;4.748;2023-09-19T15:37:29;4.10;;;1.75;;
15126;SDS011;7664;52.008;4.748;2023-09-19T15:39:57;6.90;;;1.48;;
15126;SDS011;7664;52.008;4.748;2023-09-19T15:42:25;9.35;;;2.65;;
15126;SDS011;7664;52.008;4.748;2023-09-19T15:44:54;6.85;;;1.58;;
15126;SDS011;7664;52.008;4.748;2023-09-19T15:47:22;7.35;;;1.50;;
15126;SDS011;7664;52.008;4.748;2023-09-19T15:49:50;5.03;;;1.33;;